Aviation Digital Data Service (ADDS)

Output produced by METARs form (0451 UTC 20 August 2014)
found at http://aviationweather.gov/adds/metars/
 
KFRG 200353Z AUTO 00000KT 10SM CLR 20/18 A2995 RMK AO2 SLP142 T02000178 TSNO
KISP 200356Z 00000KT 10SM BKN250 18/17 A2993 RMK AO2 SLP134 LAST AUGMENTED OBSERVATION UNTIL 1000Z T01830167
KISP 200230Z 2003/2024 VRB03KT P6SM SCT080 
     TEMPO 2008/2011 5SM BR 
     FM201200 10005KT P6SM SCT250 
     FM201500 15009KT P6SM SCT040 SCT250
       
KJFK 200230Z 2003/2106 13005KT P6SM SCT100 
     FM200600 VRB04KT P6SM SCT060 
     FM201400 11007KT P6SM SCT250 
     FM201600 15010KT P6SM SCT050 SCT250 
     FM210200 VRB04KT P6SM SCT050 BKN150
       
KBDR 200352Z 00000KT 10SM CLR 21/19 A2995 RMK AO2 SLP140 T02110189
KBDR 200230Z 2003/2024 18005KT P6SM FEW100 SCT250 
     FM200500 VRB03KT P6SM SCT100 
     FM201300 09007KT P6SM SCT250 
     FM201700 14007KT P6SM SCT050 SCT250